Overview Statistics Trail Chart Weather Telemetry Raw packets
 

This is the latest recevied weather packets stored in our database for station/object KQ4WWD. If no packets are shown the sender has not sent any weather packets the latest 10 day(s).

<< 34 35 36 37 38 39 40 >>
Time Temp. Humidity Pressure Rain* Wind** Luminosity Snow
1788381087 32.78° C 72% 1013.2 hPa 0 mm - 633 W/m² -
1788380798 32.78° C 72% 1013.4 hPa 0 mm - 320 W/m² -
1788380480 32.22° C 72% 1013.5 hPa 0 mm - 660 W/m² -
1788380175 32.22° C 73% 1013.6 hPa 0 mm - 442 W/m² -
1788379874 32.78° C 72% 1013.6 hPa 0 mm - 556 W/m² -
1788379570 32.78° C 74% 1013.6 hPa 0 mm - 464 W/m² -
1788379266 32.78° C 75% 1013.7 hPa 0 mm - 640 W/m² -
1788378961 32.78° C 74% 1013.5 hPa 0 mm - 565 W/m² -
1788378661 32.78° C 74% 1013.7 hPa 0 mm - 634 W/m² -
1788378360 32.22° C 75% 1013.8 hPa 0 mm - 630 W/m² -
1788378055 32.78° C 74% 1013.8 hPa 0 mm - 632 W/m² -
1788377752 32.22° C 74% 1013.9 hPa 0 mm - 582 W/m² -
1788377451 31.67° C 74% 1014 hPa 0 mm - 636 W/m² -
1788377149 31.67° C 76% 1014.1 hPa 0 mm - 655 W/m² -
1788376848 31.67° C 77% 1014 hPa 0 mm - 685 W/m² -
1788376544 31.67° C 80% 1014.2 hPa 0 mm - 651 W/m² -
1788376238 31.11° C 80% 1014.3 hPa 0 mm - 703 W/m² -
1788375933 31.67° C 79% 1014.2 hPa 0 mm - 150 W/m² -
1788375629 31.67° C 78% 1014.2 hPa 0 mm - 256 W/m² -
1788375325 30.56° C 83% 1014.3 hPa 0 mm - 746 W/m² -
1788375021 30.56° C 84% 1014.3 hPa 0 mm - 206 W/m² -
1788374715 31.67° C 78% 1014.6 hPa 0 mm - 327 W/m² -
1788374410 31.67° C 78% 1014.7 hPa 0 mm - 732 W/m² -
1788374107 31.67° C 80% 1014.8 hPa 0 mm - 744 W/m² -
1788373803 30.56° C 82% 1015 hPa 0 mm - 874 W/m² -

* Rain latest hour (hover to see other rain measurements)
** Current wind speed in m/s (hover to see current wind gust speed)